4XHLK LLHZ-LLHZ

Flight info

Callsign 4XHLK
Flight time 0h 1m
Altitude 800
Route VFR
Aircraft TL20/L-S/C

Departure

Time 2026-04-24 13:59
Airport Herzliya Airport (LLHZ)

Arrival

Time 2026-04-24 14:01
Airport Herzliya Airport (LLHZ)
Time Latitude Longitude Altitude Speed Heading
2026-04-24 13:49 32.18191 34.82793 89 ft 0 kts 108°
2026-04-24 13:54 32.18187 34.82856 89 ft 12 kts 107°
2026-04-24 13:54 32.18159 34.82950 90 ft 13 kts 109°
2026-04-24 13:54 32.18113 34.83057 92 ft 16 kts 114°
2026-04-24 13:54 32.18075 34.83185 95 ft 17 kts 109°
2026-04-24 13:55 32.18033 34.83328 98 ft 19 kts 108°
2026-04-24 13:55 32.17988 34.83477 101 ft 19 kts 109°
2026-04-24 13:55 32.17942 34.83632 106 ft 20 kts 111°
2026-04-24 13:55 32.17900 34.83777 112 ft 16 kts 111°
2026-04-24 13:56 32.17881 34.83839 114 ft 7 kts 110°
2026-04-24 13:56 32.17909 34.83857 117 ft 13 kts 320°
2026-04-24 13:56 32.17932 34.83787 115 ft 10 kts 288°
2026-04-24 13:56 32.18028 34.83461 100 ft 78 kts 290°
2026-04-24 13:57 32.18245 34.82794 214 ft 81 kts 311°
2026-04-24 13:57 32.18796 34.82946 419 ft 91 kts
2026-04-24 13:57 32.19030 34.83498 624 ft 106 kts 95°
2026-04-24 13:57 32.18774 34.84348 577 ft 115 kts 106°
2026-04-24 13:58 32.18470 34.85172 651 ft 103 kts 139°
2026-04-24 13:58 32.17769 34.85216 586 ft 103 kts 207°
2026-04-24 13:58 32.17852 34.84616 298 ft 84 kts 268°
2026-04-24 13:58 32.17882 34.83980 529 ft 75 kts 281°
2026-04-24 13:59 32.18032 34.83283 587 ft 102 kts 286°
2026-04-24 13:59 32.18448 34.82750 705 ft 97 kts
2026-04-24 13:59 32.19019 34.83090 765 ft 97 kts 87°
2026-04-24 13:59 32.18888 34.83925 732 ft 104 kts 105°
2026-04-24 14:00 32.18688 34.84696 644 ft 97 kts 111°
2026-04-24 14:00 32.18335 34.85271 616 ft 84 kts 163°
2026-04-24 14:00 32.17757 34.85191 540 ft 76 kts 216°
2026-04-24 14:00 32.17673 34.84667 395 ft 62 kts 286°
2026-04-24 14:01 32.17791 34.84246 214 ft 53 kts 289°
2026-04-24 14:01 32.17909 34.83855 128 ft 46 kts 289°
2026-04-24 14:01 32.18024 34.83476 104 ft 74 kts 290°
2026-04-24 14:01 32.18259 34.82819 333 ft 83 kts 334°
2026-04-24 14:02 32.18897 34.82846 532 ft 99 kts
2026-04-24 14:02 32.19129 34.83478 718 ft 106 kts 108°
2026-04-24 14:02 32.18856 34.84308 829 ft 109 kts 116°
2026-04-24 14:02 32.18484 34.85029 791 ft 97 kts 128°
2026-04-24 14:03 32.17982 34.85266 570 ft 73 kts 191°
2026-04-24 14:03 32.17658 34.84926 484 ft 68 kts 262°
2026-04-24 14:03 32.17735 34.84453 299 ft 53 kts 289°
2026-04-24 14:03 32.17848 34.84059 177 ft 53 kts 289°
2026-04-24 14:04 32.17965 34.83680 114 ft 43 kts 291°
2026-04-24 14:04 32.18100 34.83212 129 ft 83 kts 289°
2026-04-24 14:04 32.18477 34.82793 309 ft 90 kts
2026-04-24 14:04 32.19118 34.82982 522 ft 96 kts 33°
2026-04-24 14:05 32.19069 34.83781 720 ft 111 kts 112°
2026-04-24 14:05 32.18740 34.84625 831 ft 117 kts 117°
2026-04-24 14:05 32.18281 34.85271 719 ft 92 kts 168°
2026-04-24 14:05 32.17731 34.85182 642 ft 77 kts 234°
2026-04-24 14:06 32.17686 34.84602 410 ft 72 kts 288°
2026-04-24 14:06 32.17832 34.84130 205 ft 51 kts 289°
2026-04-24 14:06 32.17936 34.83775 119 ft 42 kts 290°
2026-04-24 14:06 32.18076 34.83301 122 ft 89 kts 289°
2026-04-24 14:07 32.18449 34.82802 319 ft 96 kts
2026-04-24 14:07 32.19117 34.83006 507 ft 98 kts 51°
2026-04-24 14:07 32.18956 34.83822 662 ft 112 kts 114°
2026-04-24 14:07 32.18633 34.84685 737 ft 119 kts 115°
2026-04-24 14:08 32.18095 34.85262 674 ft 118 kts 184°
2026-04-24 14:08 32.17667 34.84854 487 ft 65 kts 265°
2026-04-24 14:08 32.17772 34.84334 258 ft 69 kts 288°
2026-04-24 14:08 32.17914 34.83848 135 ft 53 kts 289°
2026-04-24 14:09 32.17998 34.83561 107 ft 14 kts 289°
2026-04-24 14:09 32.18054 34.83374 101 ft 11 kts 289°
2026-04-24 14:09 32.18042 34.83328 102 ft 9 kts 226°
2026-04-24 14:09 32.18062 34.83223 100 ft 16 kts 287°
2026-04-24 14:10 32.18086 34.83131 98 ft 19 kts 287°
2026-04-24 14:10 32.18152 34.82969 94 ft 14 kts 289°
2026-04-24 14:10 32.18189 34.82848 94 ft 13 kts 290°
2026-04-24 14:10 32.18191 34.82803 94 ft 3 kts 269°
2026-04-24 14:11 32.18179 34.82792 94 ft 0 kts 107°